createdAt,value
2022-11-27T00:00:47.843Z,63.30
2022-11-27T00:03:14.736Z,123.23
2022-11-27T00:05:41.548Z,70.70
2022-11-27T00:08:08.266Z,65.90
2022-11-27T00:10:35.546Z,73.63
2022-11-27T00:13:02.293Z,67.53
2022-11-27T00:15:29.020Z,65.00
2022-11-27T00:17:55.784Z,72.40
2022-11-27T00:20:26.100Z,67.70
2022-11-27T00:22:55.305Z,78.97
2022-11-27T00:25:22.180Z,74.33
2022-11-27T00:27:49.055Z,76.60
2022-11-27T00:30:17.209Z,77.07
2022-11-27T00:32:44.203Z,68.50
2022-11-27T00:35:11.362Z,72.20
2022-11-27T00:37:39.389Z,80.03
2022-11-27T00:40:07.011Z,70.53
2022-11-27T00:42:34.017Z,80.70
2022-11-27T00:45:00.923Z,69.50
2022-11-27T00:47:27.663Z,72.43
2022-11-27T00:49:54.575Z,71.13
2022-11-27T00:52:21.383Z,68.83
2022-11-27T00:54:48.104Z,76.50
2022-11-27T00:57:15.012Z,79.40
2022-11-27T00:59:41.783Z,71.10
2022-11-27T01:02:08.737Z,72.17
2022-11-27T01:04:35.520Z,64.00
2022-11-27T01:07:02.335Z,67.47
2022-11-27T01:09:29.157Z,68.70
2022-11-27T01:11:56.046Z,67.30
2022-11-27T01:14:25.129Z,74.07
2022-11-27T01:16:52.196Z,60.90
2022-11-27T01:19:19.475Z,75.93
2022-11-27T01:21:46.812Z,76.90
2022-11-27T01:24:15.447Z,69.30
2022-11-27T01:26:43.048Z,68.17
2022-11-27T01:36:33.715Z,74.30
2022-11-27T01:39:01.801Z,69.57
2022-11-27T01:41:32.412Z,74.60
2022-11-27T01:44:01.850Z,76.67
2022-11-27T01:46:38.497Z,75.23
2022-11-27T01:49:11.233Z,71.27
2022-11-27T01:51:56.351Z,63.20
2022-11-27T01:54:27.096Z,71.23
2022-11-27T01:56:58.353Z,66.90
2022-11-27T01:59:25.895Z,74.43
2022-11-27T02:01:53.018Z,59.23
2022-11-27T02:04:20.113Z,72.10
2022-11-27T02:06:47.222Z,71.97
2022-11-27T02:09:15.094Z,67.03
2022-11-27T02:11:57.930Z,66.83
2022-11-27T02:14:44.889Z,62.43
2022-11-27T02:17:22.331Z,60.67
2022-11-27T02:20:15.508Z,60.50
2022-11-27T02:23:22.067Z,69.90
2022-11-27T02:26:01.364Z,67.10
2022-11-27T02:28:56.749Z,66.80
2022-11-27T02:31:46.563Z,65.97
2022-11-27T02:34:28.198Z,63.17
2022-11-27T02:37:01.844Z,67.50
2022-11-27T02:39:59.402Z,64.10
2022-11-27T02:42:28.685Z,69.77
2022-11-27T02:45:12.637Z,74.37
2022-11-27T02:47:43.086Z,71.10
2022-11-27T02:50:16.330Z,71.10
2022-11-27T02:56:32.648Z,68.80
2022-11-27T02:59:07.570Z,75.40
2022-11-27T03:01:42.637Z,65.93
2022-11-27T03:04:14.680Z,66.13
2022-11-27T03:06:47.330Z,63.30
2022-11-27T03:09:20.634Z,71.97
2022-11-27T03:11:47.918Z,65.83
2022-11-27T03:14:15.577Z,66.70
2022-11-27T03:17:11.056Z,66.13
2022-11-27T03:19:53.491Z,69.13
2022-11-27T03:22:20.648Z,71.63
2022-11-27T03:24:49.896Z,65.67
2022-11-27T03:27:22.688Z,64.00
2022-11-27T03:29:54.869Z,67.13
2022-11-27T03:32:22.155Z,76.30
2022-11-27T03:34:49.355Z,63.43
2022-11-27T03:37:17.704Z,71.73
2022-11-27T03:39:44.917Z,66.00
2022-11-27T03:42:32.996Z,65.53
2022-11-27T03:45:18.799Z,66.97
2022-11-27T03:48:17.221Z,60.67
2022-11-27T03:51:00.001Z,73.33
2022-11-27T03:53:48.512Z,65.77
2022-11-27T03:56:25.459Z,73.90
2022-11-27T03:58:59.410Z,66.07
2022-11-27T04:01:27.812Z,64.03
2022-11-27T04:03:54.739Z,67.73
2022-11-27T04:06:21.987Z,66.73
2022-11-27T04:08:49.745Z,64.13
2022-11-27T04:11:17.679Z,69.63
2022-11-27T04:13:45.138Z,63.70
2022-11-27T04:16:12.270Z,72.00
2022-11-27T04:18:39.317Z,65.43
2022-11-27T04:21:06.313Z,71.07
2022-11-27T04:23:34.242Z,62.90
2022-11-27T04:26:01.122Z,58.30
2022-11-27T04:28:27.865Z,69.83
2022-11-27T04:30:54.922Z,70.03
2022-11-27T04:33:22.263Z,68.63
2022-11-27T04:35:50.565Z,67.40
2022-11-27T04:38:18.923Z,71.17
2022-11-27T04:40:47.258Z,61.90
2022-11-27T04:43:14.246Z,73.47
2022-11-27T04:45:41.359Z,66.57
2022-11-27T04:48:08.265Z,66.03
2022-11-27T04:50:35.007Z,68.17
2022-11-27T04:53:01.988Z,65.63
2022-11-27T04:55:28.982Z,61.47
2022-11-27T04:57:57.015Z,67.17
2022-11-27T05:00:23.888Z,62.00
2022-11-27T05:02:50.906Z,79.80
2022-11-27T05:05:18.064Z,65.27
2022-11-27T05:07:44.913Z,69.33
2022-11-27T05:10:11.885Z,71.43
2022-11-27T05:12:39.094Z,67.50
2022-11-27T05:15:06.694Z,61.30
2022-11-27T05:17:33.565Z,68.07
2022-11-27T05:20:00.487Z,64.73
2022-11-27T05:22:27.521Z,74.40
2022-11-27T05:24:54.343Z,69.10
2022-11-27T05:27:21.209Z,71.43
2022-11-27T05:29:48.015Z,70.60
2022-11-27T05:32:14.863Z,66.63
2022-11-27T05:34:41.867Z,63.30
2022-11-27T05:37:08.912Z,67.27
2022-11-27T05:39:35.804Z,72.53
2022-11-27T05:42:02.934Z,79.77
2022-11-27T05:44:30.428Z,68.30
2022-11-27T05:46:57.597Z,71.10
2022-11-27T05:49:24.409Z,72.53
2022-11-27T05:51:52.023Z,68.83
2022-11-27T05:54:20.102Z,72.57
2022-11-27T05:56:47.030Z,71.43
2022-11-27T05:59:15.092Z,75.93
2022-11-27T06:01:42.489Z,70.50
2022-11-27T06:04:09.468Z,81.17
2022-11-27T06:06:36.329Z,81.30
2022-11-27T06:09:06.719Z,68.53
2022-11-27T06:11:36.343Z,75.80
2022-11-27T06:14:03.181Z,82.00
2022-11-27T06:16:30.127Z,83.50
2022-11-27T06:18:57.259Z,81.23
2022-11-27T06:21:24.593Z,75.10
2022-11-27T06:23:55.576Z,79.90
2022-11-27T06:26:28.232Z,69.90
2022-11-27T06:28:56.502Z,66.93
2022-11-27T06:31:27.224Z,64.60
2022-11-27T06:33:55.787Z,68.63
2022-11-27T06:36:25.034Z,75.50
2022-11-27T06:38:51.917Z,72.77
2022-11-27T06:41:20.622Z,72.63
2022-11-27T06:43:48.173Z,68.53
2022-11-27T06:46:17.498Z,73.33
2022-11-27T06:48:46.086Z,68.87
2022-11-27T06:51:15.509Z,82.57
2022-11-27T06:53:43.346Z,64.73
2022-11-27T06:56:13.138Z,73.47
2022-11-27T06:58:40.641Z,68.77
2022-11-27T07:01:13.612Z,70.73
2022-11-27T07:03:40.838Z,61.97
2022-11-27T07:06:10.197Z,72.27
2022-11-27T07:08:37.559Z,74.23
2022-11-27T07:11:06.815Z,67.53
2022-11-27T07:13:33.968Z,69.33
2022-11-27T07:16:02.698Z,70.43
2022-11-27T07:18:31.117Z,66.53
2022-11-27T07:20:58.052Z,73.70
2022-11-27T07:23:24.939Z,77.87
2022-11-27T07:25:51.801Z,77.43
2022-11-27T07:28:19.240Z,70.03
2022-11-27T07:30:53.639Z,71.70
2022-11-27T07:33:20.552Z,67.77
2022-11-27T07:35:47.545Z,68.80
2022-11-27T07:38:14.384Z,68.67
2022-11-27T07:40:41.493Z,68.70
2022-11-27T07:43:08.388Z,67.00
2022-11-27T07:45:35.237Z,63.97
2022-11-27T07:48:02.059Z,58.80
2022-11-27T07:50:29.012Z,62.87
2022-11-27T07:52:56.015Z,62.80
2022-11-27T07:55:22.956Z,58.93
2022-11-27T07:57:49.845Z,58.30
2022-11-27T08:00:17.320Z,62.03
2022-11-27T08:02:44.158Z,63.43
2022-11-27T08:05:13.053Z,64.13
2022-11-27T08:07:40.875Z,51.17
2022-11-27T08:10:08.491Z,62.87
2022-11-27T08:12:35.587Z,62.20
2022-11-27T08:15:04.670Z,59.53
2022-11-27T08:17:31.856Z,57.90
2022-11-27T08:19:58.915Z,62.17
2022-11-27T08:22:26.005Z,63.37
2022-11-27T08:24:52.909Z,69.20
2022-11-27T08:27:20.637Z,59.63
2022-11-27T08:29:47.706Z,55.77
2022-11-27T08:32:14.604Z,60.37
2022-11-27T08:34:41.595Z,58.90
2022-11-27T08:37:08.734Z,63.03
2022-11-27T08:39:36.615Z,60.43
2022-11-27T08:42:03.627Z,57.53
2022-11-27T08:44:30.604Z,52.70
2022-11-27T08:46:57.385Z,61.23
2022-11-27T08:49:24.176Z,56.30
2022-11-27T08:51:50.934Z,54.30
2022-11-27T08:54:17.814Z,56.27
2022-11-27T08:56:44.584Z,57.37
2022-11-27T08:59:11.409Z,60.70
2022-11-27T09:01:38.525Z,55.83
2022-11-27T09:04:05.756Z,54.63
2022-11-27T09:06:34.941Z,51.57
2022-11-27T09:09:03.933Z,53.50
2022-11-27T09:11:32.058Z,59.73
2022-11-27T09:14:00.685Z,58.73
2022-11-27T09:16:29.156Z,54.37
2022-11-27T09:18:57.281Z,55.33
2022-11-27T09:21:30.426Z,57.80
2022-11-27T09:23:59.195Z,52.77
2022-11-27T09:26:27.418Z,55.90
2022-11-27T09:28:55.509Z,58.10
2022-11-27T09:31:23.255Z,57.43
2022-11-27T09:33:50.843Z,56.80
2022-11-27T09:36:23.364Z,57.17
2022-11-27T09:38:51.707Z,62.20
2022-11-27T09:41:39.882Z,67.97
2022-11-27T09:44:33.090Z,61.20
2022-11-27T09:47:09.963Z,61.37
2022-11-27T09:49:58.575Z,64.20
2022-11-27T09:52:52.369Z,65.17
2022-11-27T09:55:33.163Z,57.30
2022-11-27T09:58:25.298Z,66.03
2022-11-27T10:00:54.322Z,61.30
2022-11-27T10:03:25.349Z,51.13
2022-11-27T10:06:26.269Z,56.43
2022-11-27T10:09:08.301Z,62.53
2022-11-27T10:11:41.669Z,60.07
2022-11-27T10:14:32.477Z,51.63
2022-11-27T10:17:10.557Z,54.57
2022-11-27T10:19:50.091Z,45.70
2022-11-27T10:22:28.059Z,51.53
2022-11-27T10:25:16.283Z,57.00
2022-11-27T10:27:43.143Z,51.73
2022-11-27T10:30:21.046Z,62.07
2022-11-27T10:32:55.533Z,61.67
2022-11-27T10:35:25.640Z,58.47
2022-11-27T10:38:17.834Z,50.07
2022-11-27T10:41:09.828Z,48.53
2022-11-27T10:43:39.102Z,49.60
2022-11-27T10:46:14.839Z,54.53
2022-11-27T10:48:42.064Z,51.87
2022-11-27T10:51:17.365Z,50.63
2022-11-27T10:53:47.174Z,47.07
2022-11-27T10:56:15.856Z,50.30
2022-11-27T10:59:01.362Z,58.37
2022-11-27T11:01:41.424Z,46.20
2022-11-27T11:04:35.932Z,48.60
2022-11-27T11:06:57.426Z,47.70
2022-11-27T11:09:27.353Z,40.90
2022-11-27T11:11:54.175Z,46.23
2022-11-27T11:14:26.614Z,43.80
2022-11-27T11:16:55.055Z,41.87
2022-11-27T11:19:43.942Z,48.17
2022-11-27T11:22:16.648Z,47.53
2022-11-27T11:24:49.214Z,47.83
2022-11-27T11:27:27.132Z,48.70
2022-11-27T11:29:55.716Z,45.50
2022-11-27T11:32:29.761Z,50.20
2022-11-27T11:35:34.981Z,50.90
2022-11-27T11:38:05.485Z,51.63
2022-11-27T11:40:35.303Z,50.23
2022-11-27T11:43:06.540Z,50.27
2022-11-27T11:45:34.862Z,54.83
2022-11-27T11:48:19.212Z,48.37
2022-11-27T11:51:07.386Z,47.87
2022-11-27T11:53:45.706Z,44.23
2022-11-27T11:56:21.309Z,51.57
2022-11-27T11:58:57.043Z,44.60
2022-11-27T12:01:32.816Z,55.40
2022-11-27T12:04:23.954Z,46.73
2022-11-27T12:07:31.877Z,48.93
2022-11-27T12:10:28.140Z,49.33
2022-11-27T12:13:07.500Z,48.03
2022-11-27T12:16:07.572Z,53.97
2022-11-27T12:18:59.424Z,53.53
2022-11-27T12:21:39.731Z,69.73
2022-11-27T12:24:19.121Z,56.53
2022-11-27T12:27:06.401Z,66.17
2022-11-27T12:29:47.142Z,59.27
2022-11-27T12:32:23.297Z,54.90
2022-11-27T12:35:40.954Z,51.17
2022-11-27T12:38:28.818Z,56.07
2022-11-27T12:41:18.704Z,44.93
2022-11-27T12:43:55.850Z,48.97
2022-11-27T12:46:28.549Z,55.00
2022-11-27T12:49:10.223Z,48.23
2022-11-27T12:51:47.213Z,43.93
2022-11-27T12:54:28.111Z,45.63
2022-11-27T12:56:59.283Z,50.17
2022-11-27T12:59:33.944Z,48.53
2022-11-27T13:02:29.934Z,48.40
2022-11-27T13:05:08.724Z,47.27
2022-11-27T13:08:02.573Z,49.47
2022-11-27T13:10:41.328Z,44.90
2022-11-27T13:13:56.491Z,51.43
2022-11-27T13:16:45.157Z,56.63
2022-11-27T13:19:15.323Z,45.67
2022-11-27T13:21:45.289Z,54.17
2022-11-27T13:24:13.892Z,49.03
2022-11-27T13:26:56.011Z,59.60
2022-11-27T13:29:51.631Z,67.50
2022-11-27T13:32:28.845Z,63.80
2022-11-27T13:34:58.664Z,53.10
2022-11-27T13:37:33.087Z,58.43
2022-11-27T13:40:06.751Z,56.00
2022-11-27T13:42:37.002Z,51.53
2022-11-27T13:45:11.998Z,58.30
2022-11-27T13:47:43.768Z,62.50
2022-11-27T13:50:16.826Z,62.80
2022-11-27T13:53:09.682Z,59.17
2022-11-27T13:55:38.532Z,62.57
2022-11-27T13:58:07.021Z,60.90
2022-11-27T14:00:42.795Z,62.80
2022-11-27T14:03:23.842Z,59.50
2022-11-27T14:05:50.683Z,80.13
2022-11-27T14:08:25.241Z,80.23
2022-11-27T14:10:59.293Z,69.23
2022-11-27T14:13:50.712Z,60.17
2022-11-27T14:16:35.529Z,59.10
2022-11-27T14:19:05.690Z,55.07
2022-11-27T14:21:35.867Z,60.73
2022-11-27T14:24:06.981Z,56.47
2022-11-27T14:26:33.816Z,59.60
2022-11-27T14:29:00.890Z,64.30
2022-11-27T14:31:35.903Z,66.57
2022-11-27T14:34:23.110Z,69.13
2022-11-27T14:36:52.192Z,66.57
2022-11-27T14:39:24.266Z,65.13
2022-11-27T14:42:04.770Z,68.07
2022-11-27T14:44:31.926Z,64.50
2022-11-27T14:47:02.431Z,68.37
2022-11-27T14:49:30.714Z,69.13
2022-11-27T14:52:03.157Z,91.57
2022-11-27T14:54:34.325Z,77.83
2022-11-27T14:57:01.383Z,79.63
2022-11-27T14:59:28.213Z,108.33
2022-11-27T15:02:07.371Z,81.27
2022-11-27T15:04:36.816Z,83.73
2022-11-27T15:07:22.270Z,93.60
2022-11-27T15:09:52.840Z,101.23
2022-11-27T15:12:29.712Z,85.10
2022-11-27T15:15:01.665Z,83.73
2022-11-27T15:17:32.833Z,77.63
2022-11-27T15:20:01.325Z,75.10
2022-11-27T15:22:28.156Z,80.47
2022-11-27T15:25:06.587Z,78.00
2022-11-27T15:27:46.570Z,86.97
2022-11-27T15:30:18.028Z,101.17
2022-11-27T15:32:53.619Z,105.27
2022-11-27T15:35:26.660Z,101.13
2022-11-27T15:37:56.420Z,90.13
2022-11-27T15:40:36.274Z,92.40
2022-11-27T15:43:10.563Z,86.27
2022-11-27T15:45:37.517Z,87.00
2022-11-27T15:48:04.604Z,88.33
2022-11-27T15:50:31.974Z,88.97
2022-11-27T15:53:00.951Z,90.70
2022-11-27T15:55:28.064Z,89.37
2022-11-27T15:57:54.869Z,87.10
2022-11-27T16:00:22.207Z,90.30
2022-11-27T16:02:49.452Z,91.90
2022-11-27T16:05:16.388Z,82.90
2022-11-27T16:07:43.721Z,86.10
2022-11-27T16:10:11.565Z,83.37
2022-11-27T16:12:41.486Z,74.67
2022-11-27T16:15:09.336Z,79.23
2022-11-27T16:17:36.310Z,82.80
2022-11-27T16:20:04.040Z,82.00
2022-11-27T16:22:30.873Z,68.90
2022-11-27T16:24:57.733Z,75.17
2022-11-27T16:27:24.909Z,77.40
2022-11-27T16:29:51.800Z,87.67
2022-11-27T16:32:18.683Z,81.17
2022-11-27T16:34:45.544Z,86.17
2022-11-27T16:37:17.093Z,77.90
2022-11-27T16:39:47.283Z,87.47
2022-11-27T16:42:14.361Z,94.10
2022-11-27T16:44:43.308Z,86.57
2022-11-27T16:47:10.777Z,81.50
2022-11-27T16:49:37.674Z,84.23
2022-11-27T16:52:04.821Z,95.10
2022-11-27T16:54:31.603Z,86.47
2022-11-27T16:56:58.345Z,92.17
2022-11-27T16:59:26.562Z,87.73
2022-11-27T17:01:53.685Z,93.93
2022-11-27T17:04:21.167Z,98.87
2022-11-27T17:06:49.827Z,91.00
2022-11-27T17:09:17.344Z,91.17
2022-11-27T17:11:48.782Z,88.13
2022-11-27T17:14:16.816Z,89.23
2022-11-27T17:16:43.988Z,90.27
2022-11-27T17:19:13.313Z,87.07
2022-11-27T17:21:40.927Z,93.27
2022-11-27T17:24:14.988Z,88.50
2022-11-27T17:26:43.748Z,95.03
2022-11-27T17:29:12.122Z,88.63
2022-11-27T17:31:39.899Z,91.37
2022-11-27T17:34:07.944Z,95.50
2022-11-27T17:36:37.414Z,89.57
2022-11-27T17:39:05.898Z,86.53
2022-11-27T17:41:33.692Z,88.13
2022-11-27T17:44:00.683Z,82.77
2022-11-27T17:46:30.531Z,76.07
2022-11-27T17:49:00.562Z,80.67
2022-11-27T17:51:32.862Z,83.03
2022-11-27T17:54:01.304Z,81.63
2022-11-27T17:56:29.166Z,84.27
2022-11-27T17:58:56.141Z,75.30
2022-11-27T18:01:25.252Z,82.27
2022-11-27T18:03:55.872Z,83.03
2022-11-27T18:06:23.091Z,81.67
2022-11-27T18:08:50.533Z,119.47
2022-11-27T18:11:22.981Z,99.60
2022-11-27T18:13:50.483Z,84.03
2022-11-27T18:16:21.849Z,76.50
2022-11-27T18:18:49.703Z,76.00
2022-11-27T18:21:20.873Z,79.70
2022-11-27T18:24:21.435Z,77.30
2022-11-27T18:27:07.823Z,77.30
2022-11-27T18:29:24.414Z,76.87
2022-11-27T18:31:52.811Z,80.50
2022-11-27T18:34:20.041Z,78.17
2022-11-27T18:36:47.149Z,85.87
2022-11-27T18:39:14.105Z,84.80
2022-11-27T18:41:41.111Z,88.57
2022-11-27T18:44:10.025Z,84.17
2022-11-27T18:46:37.029Z,87.53
2022-11-27T18:49:04.181Z,83.90
2022-11-27T18:51:31.261Z,78.13
2022-11-27T18:53:58.457Z,85.37
2022-11-27T18:56:28.611Z,89.57
2022-11-27T18:58:55.761Z,88.47
2022-11-27T19:01:28.141Z,82.30
2022-11-27T19:03:55.911Z,86.70
2022-11-27T19:06:24.942Z,90.33
2022-11-27T19:08:52.606Z,91.60
2022-11-27T19:11:23.688Z,82.13
2022-11-27T19:13:51.998Z,84.73
2022-11-27T19:16:22.090Z,88.70
2022-11-27T19:18:49.436Z,82.83
2022-11-27T19:21:27.746Z,87.27
2022-11-27T19:23:55.259Z,94.10
2022-11-27T19:26:24.817Z,107.77
2022-11-27T19:28:55.298Z,98.77
2022-11-27T19:31:23.832Z,97.23
2022-11-27T19:33:59.004Z,97.27
2022-11-27T19:36:26.361Z,93.87
2022-11-27T19:38:55.495Z,99.30
2022-11-27T19:41:22.971Z,95.70
2022-11-27T19:43:50.141Z,90.20
2022-11-27T19:46:18.453Z,91.23
2022-11-27T19:48:45.575Z,89.70
2022-11-27T19:51:13.317Z,97.90
2022-11-27T19:53:40.789Z,92.80
2022-11-27T19:56:08.424Z,93.43
2022-11-27T19:58:35.944Z,90.27
2022-11-27T20:01:17.568Z,92.50
2022-11-27T20:03:45.319Z,92.97
2022-11-27T20:06:15.126Z,84.83
2022-11-27T20:08:42.872Z,92.87
2022-11-27T20:11:12.279Z,89.90
2022-11-27T20:13:39.134Z,87.60
2022-11-27T20:16:14.984Z,87.03
2022-11-27T20:18:42.323Z,82.10
2022-11-27T20:21:17.981Z,94.63
2022-11-27T20:23:45.735Z,95.60
2022-11-27T20:26:15.904Z,96.77
2022-11-27T20:28:43.407Z,91.90
2022-11-27T20:31:15.792Z,85.83
2022-11-27T20:33:43.008Z,84.37
2022-11-27T20:36:15.237Z,81.90
2022-11-27T20:38:42.442Z,80.63
2022-11-27T20:41:11.501Z,80.97
2022-11-27T20:43:38.809Z,73.73
2022-11-27T20:46:07.746Z,78.97
2022-11-27T20:48:35.285Z,77.40
2022-11-27T20:51:10.529Z,78.67
2022-11-27T20:53:37.903Z,78.90
2022-11-27T20:56:06.402Z,75.77
2022-11-27T20:58:35.191Z,80.83
2022-11-27T21:01:02.591Z,83.43
2022-11-27T21:03:30.187Z,83.80
2022-11-27T21:05:57.035Z,84.90
2022-11-27T21:08:23.912Z,85.00
2022-11-27T21:10:50.695Z,89.70
2022-11-27T21:13:17.802Z,93.27
2022-11-27T21:15:46.529Z,87.13
2022-11-27T21:18:13.764Z,80.70
2022-11-27T21:20:42.447Z,95.40
2022-11-27T21:23:09.206Z,79.57
2022-11-27T21:25:38.874Z,77.93
2022-11-27T21:28:05.578Z,69.07
2022-11-27T21:30:32.397Z,76.63
2022-11-27T21:32:59.157Z,86.13
2022-11-27T21:35:31.243Z,90.33
2022-11-27T21:37:58.828Z,82.07
2022-11-27T21:40:25.593Z,78.03
2022-11-27T21:42:52.861Z,77.13
2022-11-27T21:45:19.652Z,80.67
2022-11-27T21:47:46.531Z,81.77
2022-11-27T21:50:13.922Z,81.27
2022-11-27T21:52:40.728Z,81.87
2022-11-27T21:55:11.830Z,79.10
2022-11-27T21:57:39.028Z,78.00
2022-11-27T22:00:06.581Z,77.43
2022-11-27T22:02:33.360Z,78.23
2022-11-27T22:05:00.163Z,80.47
2022-11-27T22:07:26.926Z,85.07
2022-11-27T22:09:53.706Z,84.00
2022-11-27T22:12:20.487Z,82.93
2022-11-27T22:14:49.962Z,77.67
2022-11-27T22:17:17.139Z,80.43
2022-11-27T22:19:43.925Z,85.57
2022-11-27T22:22:10.691Z,74.03
2022-11-27T22:24:37.427Z,78.33
2022-11-27T22:27:04.531Z,80.10
2022-11-27T22:29:31.280Z,82.17
2022-11-27T22:31:58.070Z,79.53
2022-11-27T22:34:24.886Z,86.43
2022-11-27T22:36:51.678Z,72.80
2022-11-27T22:39:18.494Z,75.87
2022-11-27T22:41:45.330Z,79.10
2022-11-27T22:44:16.063Z,80.30
2022-11-27T22:46:43.608Z,78.30
2022-11-27T22:49:12.321Z,75.60
2022-11-27T22:51:39.976Z,79.50
2022-11-27T22:54:09.816Z,72.67
2022-11-27T22:56:36.819Z,73.53
2022-11-27T22:59:34.933Z,75.10
2022-11-27T23:01:52.067Z,75.17
2022-11-27T23:04:18.799Z,98.33
2022-11-27T23:06:48.209Z,111.37
2022-11-27T23:09:16.269Z,120.63
2022-11-27T23:11:43.351Z,186.77
2022-11-27T23:14:10.408Z,162.57
2022-11-27T23:16:38.888Z,140.50
2022-11-27T23:19:06.157Z,124.10
2022-11-27T23:21:37.342Z,139.43
2022-11-27T23:24:05.608Z,141.70
2022-11-27T23:26:32.631Z,122.37
2022-11-27T23:28:59.380Z,109.83
2022-11-27T23:31:30.826Z,105.03
2022-11-27T23:34:01.647Z,102.57
2022-11-27T23:36:29.632Z,90.43
2022-11-27T23:38:56.841Z,92.50
2022-11-27T23:41:25.147Z,86.83
2022-11-27T23:43:53.929Z,92.77
2022-11-27T23:46:26.807Z,89.07
2022-11-27T23:48:55.336Z,85.00
2022-11-27T23:51:25.890Z,101.27
2022-11-27T23:53:53.380Z,94.70
2022-11-27T23:56:22.660Z,92.00
2022-11-27T23:58:49.763Z,91.50
